DHECK VNLK-VNLK
Flight info
| Callsign | DHECK |
|---|---|
| Flight time | N/A |
| Altitude | 17000 |
| Route | DCT |
| Aircraft | UH1/L-S/L |
Departure
| Time | 2026-02-14 15:40 |
|---|---|
| Airport | Tenzing-Hillary Airport (VNLK) |
Arrival
| Time | N/A |
|---|---|
| Airport | Tenzing-Hillary Airport (VNLK) |
| Time | Latitude | Longitude | Altitude | Speed | Heading |
|---|---|---|---|---|---|
| 2026-02-14 15:24 | 27.68770 | 86.73188 | 9406 ft | 0 kts | 27° |
| 2026-02-14 15:25 | 27.68778 | 86.73191 | 9406 ft | 2 kts | 269° |
| 2026-02-14 15:25 | 27.68779 | 86.73191 | 9406 ft | 0 kts | 250° |
| 2026-02-14 15:26 | 27.68777 | 86.73185 | 9407 ft | 3 kts | 267° |
| 2026-02-14 15:26 | 27.68774 | 86.73163 | 9408 ft | 6 kts | 282° |
| 2026-02-14 15:27 | 27.68737 | 86.73044 | 9408 ft | 30 kts | 244° |
| 2026-02-14 15:27 | 27.68097 | 86.72400 | 9341 ft | 78 kts | 199° |
| 2026-02-14 15:27 | 27.67608 | 86.72183 | 9441 ft | 72 kts | 208° |
| 2026-02-14 15:28 | 27.67209 | 86.71805 | 9409 ft | 82 kts | 244° |
| 2026-02-14 15:28 | 27.67186 | 86.71202 | 9533 ft | 71 kts | 297° |
| 2026-02-14 15:28 | 27.67554 | 86.71018 | 9634 ft | 63 kts | 13° |
| 2026-02-14 15:29 | 27.68098 | 86.71755 | 9506 ft | 54 kts | 55° |
| 2026-02-14 15:29 | 27.68305 | 86.72059 | 9412 ft | 44 kts | 64° |
| 2026-02-14 15:29 | 27.68395 | 86.72348 | 9272 ft | 34 kts | 83° |
| 2026-02-14 15:29 | 27.68467 | 86.72516 | 9191 ft | 15 kts | 99° |
| 2026-02-14 15:30 | 27.68508 | 86.72625 | 9244 ft | 24 kts | 184° |
| 2026-02-14 15:30 | 27.68326 | 86.72686 | 9338 ft | 33 kts | 205° |
| 2026-02-14 15:30 | 27.68116 | 86.72537 | 9356 ft | 38 kts | 219° |
| 2026-02-14 15:30 | 27.67892 | 86.72357 | 9413 ft | 38 kts | 242° |
| 2026-02-14 15:31 | 27.67882 | 86.72094 | 9527 ft | 39 kts | 315° |
| 2026-02-14 15:31 | 27.68141 | 86.72021 | 9631 ft | 37 kts | 13° |
| 2026-02-14 15:31 | 27.68309 | 86.72235 | 9635 ft | 40 kts | 49° |
| 2026-02-14 15:31 | 27.68503 | 86.72525 | 9551 ft | 51 kts | 68° |
| 2026-02-14 15:32 | 27.68619 | 86.72880 | 9481 ft | 40 kts | 58° |
| 2026-02-14 15:32 | 27.68727 | 86.73053 | 9397 ft | 11 kts | 84° |
| 2026-02-14 15:32 | 27.68729 | 86.73071 | 9379 ft | 0 kts | 34° |
| 2026-02-14 15:32 | 27.68745 | 86.73026 | 9396 ft | 26 kts | 274° |
| 2026-02-14 15:33 | 27.68718 | 86.72252 | 9639 ft | 58 kts | 242° |
| 2026-02-14 15:33 | 27.68403 | 86.71917 | 9645 ft | 67 kts | 194° |
| 2026-02-14 15:33 | 27.67950 | 86.71884 | 9652 ft | 64 kts | 149° |
| 2026-02-14 15:34 | 27.67683 | 86.72143 | 9733 ft | 39 kts | 83° |
| 2026-02-14 15:34 | 27.67741 | 86.72325 | 9631 ft | 30 kts | 6° |
| 2026-02-14 15:34 | 27.68073 | 86.72377 | 9460 ft | 60 kts | 7° |
| 2026-02-14 15:35 | 27.68571 | 86.72613 | 9279 ft | 24 kts | 75° |
| 2026-02-14 15:35 | 27.68616 | 86.72784 | 9285 ft | 19 kts | 72° |
| 2026-02-14 15:35 | 27.68645 | 86.72882 | 9293 ft | 12 kts | 72° |
| 2026-02-14 15:35 | 27.68681 | 86.72972 | 9353 ft | 13 kts | 56° |
| 2026-02-14 15:36 | 27.68723 | 86.73044 | 9376 ft | 11 kts | 56° |
| 2026-02-14 15:36 | 27.68763 | 86.73117 | 9418 ft | 10 kts | 52° |
| 2026-02-14 15:36 | 27.68788 | 86.73156 | 9405 ft | 1 kts | 47° |
| 2026-02-14 15:37 | 27.68788 | 86.73158 | 9405 ft | 1 kts | 14° |
| 2026-02-14 15:37 | 27.68790 | 86.73159 | 9405 ft | 0 kts | 294° |
| 2026-02-14 15:37 | 27.68787 | 86.73147 | 9405 ft | 4 kts | 255° |
| 2026-02-14 15:38 | 27.68636 | 86.72876 | 9336 ft | 56 kts | 234° |
| 2026-02-14 15:38 | 27.68494 | 86.72358 | 9206 ft | 79 kts | 270° |
| 2026-02-14 15:38 | 27.68708 | 86.71813 | 9244 ft | 74 kts | 313° |
| 2026-02-14 15:38 | 27.69164 | 86.71666 | 9403 ft | 70 kts | 358° |
| 2026-02-14 15:39 | 27.69630 | 86.71604 | 9560 ft | 68 kts | 342° |
| 2026-02-14 15:39 | 27.70100 | 86.71415 | 9659 ft | 75 kts | 340° |
| 2026-02-14 15:39 | 27.70624 | 86.71252 | 9696 ft | 81 kts | 345° |
| 2026-02-14 15:39 | 27.71192 | 86.71162 | 9737 ft | 80 kts | 354° |
| 2026-02-14 15:40 | 27.71705 | 86.71149 | 9884 ft | 69 kts | 356° |
| 2026-02-14 15:40 | 27.72196 | 86.71121 | 9942 ft | 73 kts | 355° |
| 2026-02-14 15:40 | 27.72724 | 86.71137 | 10023 ft | 78 kts | 2° |
| 2026-02-14 15:41 | 27.73837 | 86.71310 | 10185 ft | 81 kts | 5° |
| 2026-02-14 15:41 | 27.74378 | 86.71437 | 10278 ft | 79 kts | 6° |
| 2026-02-14 15:41 | 27.74910 | 86.71550 | 10391 ft | 77 kts | 6° |
| 2026-02-14 15:41 | 27.75421 | 86.71669 | 10545 ft | 74 kts | 5° |
| 2026-02-14 15:42 | 27.75927 | 86.71792 | 10636 ft | 72 kts | 6° |
| 2026-02-14 15:42 | 27.76404 | 86.71912 | 10738 ft | 70 kts | 4° |
| 2026-02-14 15:42 | 27.76883 | 86.72022 | 10820 ft | 68 kts | 2° |
| 2026-02-14 15:42 | 27.77325 | 86.72108 | 10918 ft | 64 kts | 2° |
| 2026-02-14 15:43 | 27.77743 | 86.72171 | 11070 ft | 58 kts | 353° |
| 2026-02-14 15:43 | 27.78151 | 86.72151 | 11191 ft | 58 kts | 352° |
| 2026-02-14 15:43 | 27.78529 | 86.72128 | 11354 ft | 53 kts | 345° |
| 2026-02-14 15:43 | 27.78880 | 86.72051 | 11610 ft | 51 kts | 342° |
| 2026-02-14 15:44 | 27.79232 | 86.71950 | 11788 ft | 53 kts | 344° |
| 2026-02-14 15:44 | 27.79579 | 86.71823 | 11956 ft | 51 kts | 341° |
| 2026-02-14 15:44 | 27.79906 | 86.71751 | 12125 ft | 42 kts | 354° |
| 2026-02-14 15:45 | 27.80409 | 86.71637 | 12383 ft | 36 kts | 359° |
| 2026-02-14 15:45 | 27.80667 | 86.71635 | 12464 ft | 37 kts | 351° |
| 2026-02-14 15:45 | 27.80906 | 86.71489 | 12499 ft | 43 kts | 319° |
| 2026-02-14 15:45 | 27.81096 | 86.71230 | 12436 ft | 39 kts | 311° |
| 2026-02-14 15:46 | 27.81180 | 86.71117 | 12334 ft | 0 kts | 12° |
| 2026-02-14 15:46 | 27.81182 | 86.71118 | 12335 ft | 0 kts | 349° |
| 2026-02-14 15:46 | 27.81205 | 86.71101 | 12343 ft | 6 kts | 22° |
| 2026-02-14 15:47 | 27.81175 | 86.71145 | 12347 ft | 16 kts | 160° |
| 2026-02-14 15:47 | 27.81034 | 86.71273 | 12379 ft | 38 kts | 145° |
| 2026-02-14 15:47 | 27.80860 | 86.71581 | 12463 ft | 55 kts | 105° |
| 2026-02-14 15:47 | 27.80861 | 86.72060 | 12532 ft | 68 kts | 73° |
| 2026-02-14 15:48 | 27.81091 | 86.72509 | 12619 ft | 64 kts | 40° |
| 2026-02-14 15:48 | 27.81408 | 86.72848 | 12749 ft | 64 kts | 39° |
| 2026-02-14 15:48 | 27.81741 | 86.73234 | 12817 ft | 71 kts | 38° |
| 2026-02-14 15:48 | 27.82100 | 86.73630 | 12836 ft | 74 kts | 38° |
| 2026-02-14 15:49 | 27.82808 | 86.74503 | 12992 ft | 77 kts | 43° |
| 2026-02-14 15:49 | 27.83141 | 86.74973 | 13103 ft | 76 kts | 48° |
| 2026-02-14 15:49 | 27.83436 | 86.75488 | 13211 ft | 81 kts | 53° |
| 2026-02-14 15:50 | 27.83711 | 86.76092 | 13259 ft | 90 kts | 59° |
| 2026-02-14 15:50 | 27.83967 | 86.76749 | 13272 ft | 91 kts | 60° |
| 2026-02-14 15:50 | 27.84214 | 86.77376 | 13439 ft | 80 kts | 59° |
| 2026-02-14 15:50 | 27.84495 | 86.77910 | 13587 ft | 80 kts | 50° |
| 2026-02-14 15:51 | 27.84821 | 86.78433 | 13677 ft | 82 kts | 47° |
| 2026-02-14 15:51 | 27.85124 | 86.78963 | 13798 ft | 77 kts | 50° |
| 2026-02-14 15:51 | 27.85442 | 86.79438 | 13927 ft | 75 kts | 44° |
| 2026-02-14 15:51 | 27.85779 | 86.79871 | 14057 ft | 73 kts | 38° |
| 2026-02-14 15:52 | 27.86173 | 86.80246 | 14139 ft | 75 kts | 36° |
| 2026-02-14 15:52 | 27.86560 | 86.80618 | 14229 ft | 72 kts | 39° |
| 2026-02-14 15:52 | 27.86944 | 86.80975 | 14275 ft | 71 kts | 34° |
| 2026-02-14 15:53 | 27.87773 | 86.81535 | 14380 ft | 63 kts | 20° |
| 2026-02-14 15:53 | 27.88155 | 86.81702 | 14439 ft | 57 kts | 12° |
| 2026-02-14 15:53 | 27.88538 | 86.81792 | 14485 ft | 55 kts | 6° |
| 2026-02-14 15:53 | 27.88910 | 86.81812 | 14567 ft | 54 kts | 356° |
| 2026-02-14 15:54 | 27.89282 | 86.81787 | 14661 ft | 53 kts | 348° |
| 2026-02-14 15:54 | 27.89656 | 86.81686 | 14732 ft | 57 kts | 336° |
| 2026-02-14 15:54 | 27.90034 | 86.81518 | 14802 ft | 60 kts | 332° |
| 2026-02-14 15:54 | 27.90420 | 86.81346 | 14889 ft | 59 kts | 327° |
| 2026-02-14 15:55 | 27.90753 | 86.81085 | 14953 ft | 59 kts | 312° |
| 2026-02-14 15:55 | 27.91041 | 86.80744 | 15036 ft | 59 kts | 308° |
| 2026-02-14 15:55 | 27.91320 | 86.80416 | 15180 ft | 57 kts | 309° |
| 2026-02-14 15:55 | 27.91575 | 86.80081 | 15294 ft | 57 kts | 303° |
| 2026-02-14 15:56 | 27.91793 | 86.79688 | 15371 ft | 59 kts | 296° |
| 2026-02-14 15:56 | 27.92023 | 86.79300 | 15464 ft | 58 kts | 304° |
| 2026-02-14 15:56 | 27.92281 | 86.78979 | 15586 ft | 56 kts | 309° |
| 2026-02-14 15:57 | 27.92814 | 86.78265 | 15768 ft | 57 kts | 316° |
| 2026-02-14 15:57 | 27.93119 | 86.78014 | 15861 ft | 52 kts | 325° |
| 2026-02-14 15:57 | 27.93375 | 86.77795 | 15905 ft | 45 kts | 311° |
| 2026-02-14 15:57 | 27.93564 | 86.77538 | 15884 ft | 35 kts | 332° |
| 2026-02-14 15:58 | 27.93718 | 86.77446 | 15827 ft | 16 kts | 349° |
| 2026-02-14 15:58 | 27.93761 | 86.77434 | 15810 ft | 0 kts | 352° |
| 2026-02-14 15:58 | 27.93774 | 86.77439 | 15824 ft | 6 kts | 53° |
| 2026-02-14 15:59 | 27.93774 | 86.77571 | 15920 ft | 35 kts | 110° |
| 2026-02-14 15:59 | 27.93671 | 86.77933 | 16050 ft | 56 kts | 111° |
| 2026-02-14 15:59 | 27.93544 | 86.78350 | 16207 ft | 54 kts | 109° |
| 2026-02-14 15:59 | 27.93428 | 86.78756 | 16369 ft | 57 kts | 107° |
| 2026-02-14 16:00 | 27.93302 | 86.79184 | 16463 ft | 56 kts | 109° |
| 2026-02-14 16:00 | 27.93196 | 86.79592 | 16622 ft | 54 kts | 100° |
| 2026-02-14 16:00 | 27.93227 | 86.80036 | 16690 ft | 62 kts | 72° |
| 2026-02-14 16:00 | 27.93437 | 86.80497 | 16758 ft | 70 kts | 51° |
| 2026-02-14 16:01 | 27.94178 | 86.81318 | 16800 ft | 77 kts | 31° |
| 2026-02-14 16:01 | 27.94615 | 86.81638 | 16792 ft | 74 kts | 23° |
| 2026-02-14 16:01 | 27.95080 | 86.81872 | 16806 ft | 73 kts | 18° |
| 2026-02-14 16:02 | 27.95541 | 86.82096 | 16831 ft | 69 kts | 26° |
| 2026-02-14 16:02 | 27.95944 | 86.82360 | 16882 ft | 65 kts | 31° |
| 2026-02-14 16:02 | 27.96317 | 86.82597 | 16933 ft | 58 kts | 27° |
| 2026-02-14 16:02 | 27.96654 | 86.82797 | 16963 ft | 53 kts | 31° |
| 2026-02-14 16:03 | 27.96980 | 86.83010 | 16984 ft | 55 kts | 31° |
| 2026-02-14 16:03 | 27.97321 | 86.83185 | 16987 ft | 53 kts | 30° |
| 2026-02-14 16:03 | 27.97651 | 86.83405 | 16961 ft | 58 kts | 41° |
| 2026-02-14 16:03 | 27.97955 | 86.83688 | 17008 ft | 54 kts | 47° |
| 2026-02-14 16:04 | 27.98238 | 86.83950 | 17058 ft | 50 kts | 49° |
| 2026-02-14 16:04 | 27.98498 | 86.84187 | 17103 ft | 48 kts | 52° |
| 2026-02-14 16:04 | 27.98738 | 86.84426 | 17123 ft | 43 kts | 52° |
| 2026-02-14 16:04 | 27.98919 | 86.84608 | 17127 ft | 24 kts | 57° |
| 2026-02-14 16:05 | 27.99048 | 86.84742 | 17151 ft | 9 kts | 43° |
| 2026-02-14 16:05 | 27.99101 | 86.84766 | 17152 ft | 6 kts | 27° |
| 2026-02-14 16:05 | 27.99106 | 86.84765 | 17137 ft | 0 kts | 12° |
| 2026-02-14 16:08 | 27.99107 | 86.84766 | 17147 ft | 3 kts | 38° |
| 2026-02-14 16:08 | 27.99131 | 86.84826 | 17169 ft | 17 kts | 62° |
| 2026-02-14 16:09 | 27.99257 | 86.85004 | 17218 ft | 14 kts | 66° |
| 2026-02-14 16:09 | 27.99339 | 86.85068 | 17235 ft | 20 kts | 25° |
| 2026-02-14 16:09 | 27.99528 | 86.85138 | 17334 ft | 34 kts | 15° |
| 2026-02-14 16:09 | 27.99805 | 86.85220 | 17458 ft | 46 kts | 10° |
| 2026-02-14 16:10 | 28.00151 | 86.85270 | 17498 ft | 52 kts | 16° |
| 2026-02-14 16:10 | 28.00480 | 86.85402 | 17534 ft | 46 kts | 56° |
| 2026-02-14 16:10 | 28.00654 | 86.85643 | 17509 ft | 35 kts | 101° |
| 2026-02-14 16:10 | 28.00675 | 86.85796 | 17435 ft | 0 kts | 245° |
| 2026-02-14 16:11 | 28.00669 | 86.85784 | 17435 ft | 4 kts | 222° |
| 2026-02-14 16:11 | 28.00559 | 86.85674 | 17436 ft | 38 kts | 213° |
| 2026-02-14 16:11 | 28.00316 | 86.85503 | 17420 ft | 43 kts | 210° |
| 2026-02-14 16:12 | 28.00023 | 86.85304 | 17394 ft | 55 kts | 212° |
| 2026-02-14 16:12 | 27.99666 | 86.85114 | 17351 ft | 59 kts | 194° |
| 2026-02-14 16:12 | 27.99242 | 86.85034 | 17279 ft | 61 kts | 206° |
| 2026-02-14 16:13 | 27.98506 | 86.84582 | 17105 ft | 62 kts | 231° |
| 2026-02-14 16:13 | 27.98337 | 86.84235 | 17102 ft | 50 kts | 310° |
| 2026-02-14 16:13 | 27.98623 | 86.84209 | 17078 ft | 58 kts | 65° |
| 2026-02-14 16:13 | 27.98855 | 86.84586 | 17126 ft | 48 kts | 41° |
| 2026-02-14 16:14 | 27.99041 | 86.84743 | 17125 ft | 15 kts | 55° |
| 2026-02-14 16:14 | 27.99051 | 86.84754 | 17125 ft | 0 kts | 51° |
| 2026-02-14 16:14 | 27.99083 | 86.84797 | 17172 ft | 18 kts | 56° |
| 2026-02-14 16:15 | 27.99203 | 86.84921 | 17244 ft | 26 kts | 24° |
| 2026-02-14 16:15 | 27.99347 | 86.85032 | 17266 ft | 21 kts | 25° |
| 2026-02-14 16:15 | 27.99403 | 86.85076 | 17228 ft | 0 kts | 18° |
| 2026-02-14 16:15 | 27.99405 | 86.85076 | 17229 ft | 0 kts | 27° |
| 2026-02-14 16:16 | 27.99405 | 86.85077 | 17229 ft | 1 kts | 27° |
| 2026-02-14 16:16 | 27.99422 | 86.85112 | 17267 ft | 15 kts | 53° |
| 2026-02-14 16:16 | 27.99569 | 86.85192 | 17368 ft | 33 kts | 359° |
| 2026-02-14 16:16 | 27.99819 | 86.85222 | 17453 ft | 36 kts | 9° |
| 2026-02-14 16:17 | 28.00177 | 86.85316 | 17355 ft | 12 kts | 24° |
| 2026-02-14 16:17 | 28.00212 | 86.85338 | 17329 ft | 4 kts | 32° |
| 2026-02-14 16:17 | 28.00214 | 86.85339 | 17329 ft | 0 kts | 25° |
| 2026-02-14 16:18 | 28.00209 | 86.85338 | 17345 ft | 2 kts | 68° |
| 2026-02-14 16:18 | 28.00190 | 86.85369 | 17369 ft | 5 kts | 84° |
| 2026-02-14 16:18 | 28.00204 | 86.85431 | 17381 ft | 9 kts | 58° |
| 2026-02-14 16:18 | 28.00224 | 86.85494 | 17399 ft | 7 kts | 63° |
| 2026-02-14 16:19 | 28.00243 | 86.85596 | 17430 ft | 15 kts | 63° |
| 2026-02-14 16:19 | 28.00271 | 86.85696 | 17439 ft | 10 kts | 68° |
| 2026-02-14 16:19 | 28.00276 | 86.85716 | 17430 ft | 0 kts | 47° |
| 2026-02-14 16:19 | 28.00277 | 86.85702 | 17439 ft | 9 kts | 53° |
| 2026-02-14 16:20 | 28.00308 | 86.85674 | 17488 ft | 12 kts | 102° |
| 2026-02-14 16:20 | 28.00351 | 86.85722 | 17537 ft | 10 kts | 214° |
| 2026-02-14 16:20 | 28.00172 | 86.85568 | 17552 ft | 51 kts | 217° |
| 2026-02-14 16:21 | 27.99339 | 86.84998 | 17333 ft | 74 kts | 209° |
| 2026-02-14 16:21 | 27.98875 | 86.84679 | 17181 ft | 82 kts | 209° |
| 2026-02-14 16:21 | 27.98404 | 86.84328 | 17063 ft | 80 kts | 210° |
| 2026-02-14 16:21 | 27.97948 | 86.83966 | 16964 ft | 78 kts | 213° |
| 2026-02-14 16:22 | 27.97560 | 86.83577 | 16869 ft | 74 kts | 224° |
| 2026-02-14 16:22 | 27.97171 | 86.83213 | 16800 ft | 71 kts | 209° |
| 2026-02-14 16:22 | 27.96712 | 86.82951 | 16633 ft | 77 kts | 201° |
| 2026-02-14 16:22 | 27.96227 | 86.82732 | 16560 ft | 75 kts | 202° |
| 2026-02-14 16:23 | 27.95762 | 86.82513 | 16506 ft | 70 kts | 202° |
| 2026-02-14 16:23 | 27.95314 | 86.82300 | 16444 ft | 69 kts | 202° |
| 2026-02-14 16:23 | 27.94873 | 86.82116 | 16394 ft | 65 kts | 200° |
| 2026-02-14 16:23 | 27.94479 | 86.81929 | 16386 ft | 58 kts | 205° |
| 2026-02-14 16:24 | 27.94104 | 86.81765 | 16371 ft | 59 kts | 205° |
| 2026-02-14 16:24 | 27.93696 | 86.81586 | 16332 ft | 68 kts | 205° |
| 2026-02-14 16:24 | 27.93243 | 86.81322 | 16172 ft | 79 kts | 204° |
| 2026-02-14 16:25 | 27.92064 | 86.80954 | 15790 ft | 94 kts | 167° |
| 2026-02-14 16:25 | 27.91401 | 86.81074 | 15579 ft | 100 kts | 164° |
| 2026-02-14 16:25 | 27.90687 | 86.81242 | 15296 ft | 109 kts | 160° |
| 2026-02-14 16:25 | 27.89954 | 86.81468 | 15062 ft | 108 kts | 159° |
| 2026-02-14 16:26 | 27.89234 | 86.81639 | 14847 ft | 102 kts | 170° |
| 2026-02-14 16:26 | 27.88544 | 86.81578 | 14637 ft | 98 kts | 186° |
| 2026-02-14 16:26 | 27.87878 | 86.81430 | 14456 ft | 96 kts | 187° |
| 2026-02-14 16:26 | 27.87250 | 86.81232 | 14251 ft | 93 kts | 198° |
| 2026-02-14 16:27 | 27.86731 | 86.80806 | 14074 ft | 92 kts | 220° |
| 2026-02-14 16:27 | 27.86286 | 86.80274 | 13913 ft | 95 kts | 221° |
| 2026-02-14 16:27 | 27.85831 | 86.79720 | 13764 ft | 98 kts | 221° |
| 2026-02-14 16:27 | 27.85385 | 86.79144 | 13621 ft | 97 kts | 224° |
| 2026-02-14 16:28 | 27.84980 | 86.78559 | 13512 ft | 93 kts | 229° |
| 2026-02-14 16:28 | 27.84618 | 86.77960 | 13436 ft | 93 kts | 231° |
| 2026-02-14 16:28 | 27.84249 | 86.77376 | 13381 ft | 90 kts | 224° |
| 2026-02-14 16:29 | 27.83393 | 86.76305 | 13187 ft | 92 kts | 224° |
| 2026-02-14 16:29 | 27.82991 | 86.75767 | 13197 ft | 84 kts | 222° |
| 2026-02-14 16:29 | 27.82609 | 86.75331 | 13222 ft | 74 kts | 220° |
| 2026-02-14 16:29 | 27.82252 | 86.74915 | 13248 ft | 73 kts | 223° |
| 2026-02-14 16:30 | 27.81892 | 86.74460 | 13197 ft | 82 kts | 222° |
| 2026-02-14 16:30 | 27.81464 | 86.73990 | 13160 ft | 88 kts | 217° |
| 2026-02-14 16:30 | 27.80986 | 86.73569 | 13163 ft | 86 kts | 212° |
| 2026-02-14 16:30 | 27.80492 | 86.73201 | 13167 ft | 88 kts | 210° |
| 2026-02-14 16:31 | 27.79946 | 86.72774 | 12993 ft | 103 kts | 206° |
| 2026-02-14 16:31 | 27.79283 | 86.72388 | 12802 ft | 111 kts | 197° |
| 2026-02-14 16:31 | 27.78555 | 86.72076 | 12697 ft | 109 kts | 195° |
| 2026-02-14 16:31 | 27.77851 | 86.71781 | 12572 ft | 108 kts | 195° |
| 2026-02-14 16:32 | 27.77145 | 86.71492 | 12395 ft | 107 kts | 194° |
| 2026-02-14 16:32 | 27.76432 | 86.71248 | 12262 ft | 109 kts | 191° |
| 2026-02-14 16:32 | 27.75693 | 86.71045 | 11968 ft | 107 kts | 187° |
| 2026-02-14 16:33 | 27.74375 | 86.70803 | 10966 ft | 91 kts | 170° |
| 2026-02-14 16:33 | 27.73634 | 86.70936 | 9786 ft | 126 kts | 157° |
| 2026-02-14 16:33 | 27.72756 | 86.71157 | 9075 ft | 123 kts | 168° |